Terminal Aerodrome Forecast
Issued by NWS

Home | Current Version | Previous Version | Text Only | Print | Product List | Glossary On
Versions: 1 2 3 4 5 6 7 8 9 10 11 12 13 14 15 16 17 18 19 20 21 22 23 24 25 26 27 28 29 30 31 32 33 34 35 36 37 38
000
FTUS41 KBOX 240153 AAA
TAFHYA
TAF AMD
KHYA 240153Z 2402/2424 22010G20KT P6SM BKN035
     FM240400 30008KT 6SM BR OVC035
     FM240500 25006KT 3SM -RA BR OVC025
     FM241300 30006KT 6SM -RA BR OVC025
     FM241600 35008KT P6SM OVC035
     FM242200 02007KT P6SM BKN040=

USA.gov is the U.S. government's official web portal to all federal, state and local government web resources and services.